Time;durP1;ratioP1;P1;durP2;ratioP2;P2;SDS_P1;SDS_P2;PMS_P1;PMS_P2;Temp;Humidity;BMP_temperature;BMP_pressure;BME280_temperature;BME280_humidity;BME280_pressure;Samples;Min_cycle;Max_cycle;Signal;HPM_P1;HPM_P2
2022/04/11 00:00:47;;;;;;;4.43;1.80;;;;;;;;;;2013748;28;20925;-73
2022/04/11 00:01:46;;;;;;;3.58;1.60;;;;;;;;;;2013879;28;20905;-73
2022/04/11 00:02:45;;;;;;;3.33;1.50;;;;;;;;;;2022041;28;20199;-73
2022/04/11 00:03:44;;;;;;;2.67;1.52;;;;;;;;;;2022068;28;20930;-73
2022/04/11 00:04:44;;;;;;;2.80;1.50;;;;;;;;;;2022235;28;20195;-73
2022/04/11 00:05:43;;;;;;;4.15;1.85;;;;;;;;;;2022209;28;20896;-73
2022/04/11 00:06:42;;;;;;;2.63;1.90;;;;;;;;;;2022120;28;20192;-73
2022/04/11 00:07:43;;;;;;;4.50;1.77;;;;;;;;;;2022039;28;20199;-73
2022/04/11 00:08:42;;;;;;;2.25;1.20;;;;;;;;;;2022187;28;20725;-73
2022/04/11 00:09:42;;;;;;;3.80;1.20;;;;;;;;;;2022234;28;20171;-73
2022/04/11 00:10:41;;;;;;;8.85;1.55;;;;;;;;;;2022045;28;20452;-73
2022/04/11 00:11:40;;;;;;;5.33;1.60;;;;;;;;;;2021518;28;20180;-73
2022/04/11 00:12:39;;;;;;;3.63;1.53;;;;;;;;;;2021374;28;20398;-73
2022/04/11 00:13:38;;;;;;;4.18;1.23;;;;;;;;;;2020886;28;20417;-73
2022/04/11 00:14:38;;;;;;;2.60;1.13;;;;;;;;;;2021710;28;20175;-73
2022/04/11 00:15:39;;;;;;;1.65;1.15;;;;;;;;;;2022224;28;20751;-73
2022/04/11 00:16:38;;;;;;;5.78;1.77;;;;;;;;;;2021791;28;20271;-75
2022/04/11 00:17:37;;;;;;;1.85;1.17;;;;;;;;;;2022143;28;20199;-73
2022/04/11 00:18:36;;;;;;;4.22;1.60;;;;;;;;;;2021928;28;20175;-73
2022/04/11 00:19:35;;;;;;;3.30;1.57;;;;;;;;;;2021820;28;20229;-73
2022/04/11 00:20:34;;;;;;;3.20;1.80;;;;;;;;;;2021849;28;20403;-72
2022/04/11 00:21:33;;;;;;;1.92;1.10;;;;;;;;;;2022175;28;20864;-73
2022/04/11 00:22:36;;;;;;;2.60;1.50;;;;;;;;;;2022607;28;20572;-73
2022/04/11 00:23:36;;;;;;;3.63;1.55;;;;;;;;;;2021780;28;20415;-72
2022/04/11 00:24:35;;;;;;;2.85;1.30;;;;;;;;;;2021934;28;20228;-73
2022/04/11 00:25:34;;;;;;;2.70;1.30;;;;;;;;;;2021910;28;20217;-73
2022/04/11 00:26:33;;;;;;;3.85;1.60;;;;;;;;;;2021879;28;20777;-74
2022/04/11 00:27:32;;;;;;;2.77;1.50;;;;;;;;;;2022203;28;20172;-73
2022/04/11 00:28:31;;;;;;;3.00;1.30;;;;;;;;;;2022007;28;20892;-72
2022/04/11 00:29:30;;;;;;;1.97;1.43;;;;;;;;;;2022127;28;20399;-73
2022/04/11 00:30:29;;;;;;;2.73;1.17;;;;;;;;;;2021461;28;20401;-73
2022/04/11 00:31:29;;;;;;;2.07;1.13;;;;;;;;;;2021346;28;20771;-72
2022/04/11 00:32:28;;;;;;;5.15;2.47;;;;;;;;;;2021887;28;20430;-72
2022/04/11 00:33:27;;;;;;;3.43;1.37;;;;;;;;;;2021105;28;20199;-74
2022/04/11 00:34:26;;;;;;;2.83;1.10;;;;;;;;;;2021078;28;20398;-75
2022/04/11 00:35:25;;;;;;;1.37;1.03;;;;;;;;;;2021685;28;20848;-72
2022/04/11 00:36:24;;;;;;;1.83;1.30;;;;;;;;;;2021607;28;20823;-72
2022/04/11 00:37:23;;;;;;;3.33;1.30;;;;;;;;;;2021744;28;20402;-75
2022/04/11 00:38:22;;;;;;;2.40;1.10;;;;;;;;;;2020916;28;20410;-73
2022/04/11 00:39:21;;;;;;;3.37;1.30;;;;;;;;;;2020795;28;20418;-73
2022/04/11 00:40:20;;;;;;;3.42;1.10;;;;;;;;;;2021337;28;20402;-73
2022/04/11 00:41:19;;;;;;;3.87;1.40;;;;;;;;;;2021487;28;20218;-74
2022/04/11 00:42:18;;;;;;;2.50;1.20;;;;;;;;;;2021310;28;20402;-73
2022/04/11 00:43:30;;;;;;;3.77;1.20;;;;;;;;;;2021405;28;20873;-74
2022/04/11 00:44:29;;;;;;;3.83;1.25;;;;;;;;;;2021365;28;20410;-73
2022/04/11 00:45:28;;;;;;;1.70;1.17;;;;;;;;;;2021344;28;20689;-73
2022/04/11 00:46:27;;;;;;;2.30;1.50;;;;;;;;;;2021385;28;20428;-73
2022/04/11 00:47:26;;;;;;;4.10;1.40;;;;;;;;;;2021295;28;20406;-73
2022/04/11 00:48:25;;;;;;;2.10;1.65;;;;;;;;;;2021043;28;20406;-73
2022/04/11 00:49:24;;;;;;;1.70;1.20;;;;;;;;;;2021591;28;20178;-73
2022/04/11 00:50:23;;;;;;;2.37;1.30;;;;;;;;;;2023150;28;20445;-73
2022/04/11 00:51:24;;;;;;;1.73;0.90;;;;;;;;;;2024347;28;20402;-74
2022/04/11 00:52:23;;;;;;;1.92;1.52;;;;;;;;;;2028292;28;20488;-73
2022/04/11 00:53:22;;;;;;;3.60;1.50;;;;;;;;;;2028274;28;20223;-73
2022/04/11 00:54:21;;;;;;;3.72;1.77;;;;;;;;;;2030720;28;20402;-73
2022/04/11 00:55:22;;;;;;;2.53;1.45;;;;;;;;;;2030253;28;20186;-74
2022/04/11 00:56:21;;;;;;;2.53;1.40;;;;;;;;;;2024963;28;20211;-73
2022/04/11 00:57:20;;;;;;;2.97;1.30;;;;;;;;;;2020778;28;20631;-75
2022/04/11 00:58:19;;;;;;;1.92;1.38;;;;;;;;;;2021116;28;20407;-73
2022/04/11 00:59:18;;;;;;;4.15;1.58;;;;;;;;;;2021062;28;20188;-74
2022/04/11 01:00:18;;;;;;;2.83;1.40;;;;;;;;;;2021188;28;20176;-74
2022/04/11 01:01:17;;;;;;;2.33;1.20;;;;;;;;;;2021267;28;20413;-74
2022/04/11 01:02:15;;;;;;;2.00;1.20;;;;;;;;;;2021202;28;20544;-73
2022/04/11 01:03:14;;;;;;;3.43;1.33;;;;;;;;;;2020608;28;20448;-73
2022/04/11 01:04:23;;;;;;;1.87;1.40;;;;;;;;;;2020526;28;20851;-73
2022/04/11 01:05:22;;;;;;;1.50;1.10;;;;;;;;;;2021087;28;20603;-73
2022/04/11 01:06:22;;;;;;;2.50;1.07;;;;;;;;;;2021149;28;20176;-73
2022/04/11 01:07:21;;;;;;;3.03;1.80;;;;;;;;;;2021141;28;20781;-72
2022/04/11 01:08:20;;;;;;;2.80;1.20;;;;;;;;;;2021222;28;20172;-73
2022/04/11 01:09:19;;;;;;;2.45;1.48;;;;;;;;;;2021046;28;20405;-74
2022/04/11 01:10:18;;;;;;;1.83;1.13;;;;;;;;;;2021171;28;20188;-74
2022/04/11 01:11:17;;;;;;;2.28;1.10;;;;;;;;;;2021017;28;20764;-74
2022/04/11 01:12:17;;;;;;;2.77;1.47;;;;;;;;;;2021183;28;20254;-71
2022/04/11 01:13:16;;;;;;;2.03;1.30;;;;;;;;;;2013430;28;20755;-74
2022/04/11 01:14:15;;;;;;;1.60;1.27;;;;;;;;;;2012478;28;20176;-73
2022/04/11 01:15:14;;;;;;;4.73;1.30;;;;;;;;;;2020727;28;20176;-73
2022/04/11 01:16:13;;;;;;;2.20;1.27;;;;;;;;;;2020878;28;20398;-72
2022/04/11 01:17:12;;;;;;;1.63;1.13;;;;;;;;;;2020351;28;20414;-74
2022/04/11 01:18:11;;;;;;;1.43;1.10;;;;;;;;;;2020421;28;20417;-74
2022/04/11 01:19:10;;;;;;;1.60;0.98;;;;;;;;;;2021053;28;20411;-73
2022/04/11 01:20:10;;;;;;;1.70;1.40;;;;;;;;;;2021080;28;20176;-73
2022/04/11 01:21:09;;;;;;;1.45;1.05;;;;;;;;;;2021075;28;20683;-73
2022/04/11 01:22:10;;;;;;;2.10;1.00;;;;;;;;;;2020935;28;20203;-73
2022/04/11 01:23:09;;;;;;;3.65;1.40;;;;;;;;;;2020891;28;20310;-73
2022/04/11 01:24:08;;;;;;;2.30;1.60;;;;;;;;;;2020951;28;20218;-73
2022/04/11 01:25:07;;;;;;;4.10;1.13;;;;;;;;;;2020978;28;20953;-73
2022/04/11 01:26:07;;;;;;;1.80;1.08;;;;;;;;;;2021154;28;20471;-73
2022/04/11 01:27:06;;;;;;;3.85;1.65;;;;;;;;;;2020851;28;20188;-73
2022/04/11 01:28:05;;;;;;;4.20;1.07;;;;;;;;;;2020979;28;20179;-74
2022/04/11 01:29:04;;;;;;;1.90;1.50;;;;;;;;;;2020278;28;20465;-74
2022/04/11 01:30:05;;;;;;;1.83;1.48;;;;;;;;;;2020274;28;20182;-74
2022/04/11 01:31:04;;;;;;;2.67;1.52;;;;;;;;;;2020884;28;20180;-74
2022/04/11 01:32:04;;;;;;;2.50;1.17;;;;;;;;;;2021037;28;20168;-73
2022/04/11 01:33:14;;;;;;;1.95;1.33;;;;;;;;;;2020975;28;20402;-73
2022/04/11 01:34:13;;;;;;;1.70;1.33;;;;;;;;;;2021081;28;20164;-74
2022/04/11 01:35:18;;;;;;;3.67;1.37;;;;;;;;;;2020161;28;20189;-74
2022/04/11 01:36:18;;;;;;;1.30;1.20;;;;;;;;;;2012864;28;20415;-75
2022/04/11 01:37:17;;;;;;;2.78;1.00;;;;;;;;;;2020396;28;20172;-74
2022/04/11 01:38:17;;;;;;;2.33;1.33;;;;;;;;;;2020966;28;20714;-72
2022/04/11 01:39:16;;;;;;;2.10;1.40;;;;;;;;;;2020254;28;20768;-74
2022/04/11 01:40:15;;;;;;;1.83;1.03;;;;;;;;;;2020298;28;20176;-73
2022/04/11 01:41:14;;;;;;;2.75;1.45;;;;;;;;;;2020898;28;20449;-73
2022/04/11 01:42:13;;;;;;;1.53;1.20;;;;;;;;;;2020871;28;20171;-74
2022/04/11 01:43:11;;;;;;;1.47;1.00;;;;;;;;;;2020915;28;20405;-72
2022/04/11 01:44:10;;;;;;;3.33;1.60;;;;;;;;;;2020830;28;20429;-73
2022/04/11 01:45:11;;;;;;;1.83;1.40;;;;;;;;;;2020723;28;20959;-75
2022/04/11 01:46:09;;;;;;;2.38;1.30;;;;;;;;;;2020738;28;20405;-73
2022/04/11 01:47:09;;;;;;;1.60;1.00;;;;;;;;;;2020793;28;20190;-73
2022/04/11 01:48:08;;;;;;;2.30;1.10;;;;;;;;;;2020808;28;20394;-73
2022/04/11 01:49:07;;;;;;;1.65;1.20;;;;;;;;;;2020974;28;20168;-73
2022/04/11 01:50:13;;;;;;;2.25;1.13;;;15.90;92.80;;;;;;2020849;28;20234;-72
2022/04/11 01:51:13;;;;;;;2.03;1.42;;;15.90;92.00;;;;;;2020133;28;20227;-73
2022/04/11 01:52:13;;;;;;;3.72;1.52;;;;;;;;;;2020306;28;20218;-73
2022/04/11 01:53:17;;;;;;;1.55;1.05;;;15.80;92.00;;;;;;2020598;28;20207;-73
2022/04/11 01:54:15;;;;;;;3.85;1.60;;;15.90;91.40;;;;;;2020795;28;20234;-74
2022/04/11 01:55:14;;;;;;;1.97;1.33;;;15.90;91.00;;;;;;2020865;28;20245;-73
2022/04/11 01:58:08;;;;;;;1.00;0.90;;;15.90;90.70;;;;;;2020766;28;20183;-74
2022/04/11 01:59:06;;;;;;;3.92;1.10;;;15.90;90.70;;;;;;2020682;28;20182;-75
2022/04/11 02:00:06;;;;;;;2.70;1.30;;;15.90;90.60;;;;;;2020368;28;20184;-74
2022/04/11 02:01:04;;;;;;;2.00;1.15;;;15.80;90.60;;;;;;2020317;28;20184;-73
2022/04/11 02:02:03;;;;;;;2.03;1.33;;;15.80;90.60;;;;;;2020800;28;20211;-74
2022/04/11 02:03:03;;;;;;;1.20;1.10;;;15.80;90.50;;;;;;2020704;28;20661;-73
2022/04/11 02:04:02;;;;;;;2.55;1.20;;;15.80;90.50;;;;;;2020710;28;20516;-74
2022/04/11 02:05:00;;;;;;;2.10;1.07;;;15.80;90.50;;;;;;2020492;28;20176;-73
2022/04/11 02:05:59;;;;;;;3.63;1.57;;;15.80;90.40;;;;;;2020767;28;20172;-75
2022/04/11 02:06:57;;;;;;;3.13;1.20;;;15.90;90.50;;;;;;2020571;28;20204;-74
2022/04/11 02:07:56;;;;;;;2.17;1.20;;;15.80;90.40;;;;;;2020557;28;20258;-73
2022/04/11 02:08:55;;;;;;;1.13;1.00;;;15.80;90.40;;;;;;2020634;28;20234;-73
2022/04/11 02:09:53;;;;;;;2.00;1.23;;;15.80;90.40;;;;;;2020648;28;20259;-73
2022/04/11 02:10:52;;;;;;;2.20;1.10;;;15.80;90.30;;;;;;2020909;28;20203;-73
2022/04/11 02:11:50;;;;;;;1.47;1.00;;;15.80;90.30;;;;;;2020659;28;20214;-74
2022/04/11 02:12:49;;;;;;;2.30;1.20;;;15.80;90.30;;;;;;2020565;28;20662;-75
2022/04/11 02:13:48;;;;;;;2.88;1.27;;;15.80;90.30;;;;;;2019992;28;20176;-74
2022/04/11 02:14:46;;;;;;;1.90;1.00;;;15.80;90.30;;;;;;2020141;28;20180;-73
2022/04/11 02:15:45;;;;;;;1.70;1.23;;;15.90;90.30;;;;;;2020495;28;20196;-73
2022/04/11 02:16:43;;;;;;;2.70;1.20;;;15.80;90.20;;;;;;2020654;28;20196;-73
2022/04/11 02:17:42;;;;;;;1.73;1.00;;;15.80;90.20;;;;;;2020750;28;20183;-73
2022/04/11 02:18:41;;;;;;;2.10;1.05;;;15.80;90.20;;;;;;2020556;28;20209;-73
2022/04/11 02:19:39;;;;;;;2.17;0.80;;;15.90;90.20;;;;;;2020398;28;20241;-74
2022/04/11 02:20:38;;;;;;;1.33;1.00;;;15.80;90.10;;;;;;2019868;28;20180;-73
2022/04/11 02:21:36;;;;;;;2.37;1.10;;;15.80;90.10;;;;;;2019982;28;20593;-74
2022/04/11 02:22:51;;;;;;;1.60;1.00;;;15.80;90.10;;;;;;2020712;28;20221;-73
2022/04/11 02:23:50;;;;;;;2.40;1.30;;;15.90;90.20;;;;;;2020499;28;20170;-74
2022/04/11 02:24:49;;;;;;;1.30;1.20;;;15.80;90.10;;;;;;2020574;28;20175;-74
2022/04/11 02:25:48;;;;;;;1.42;1.30;;;15.90;90.20;;;;;;2020492;28;20172;-73
2022/04/11 02:26:46;;;;;;;1.63;0.83;;;15.90;90.20;;;;;;2020515;28;20282;-73
2022/04/11 02:27:45;;;;;;;1.60;1.30;;;15.80;90.10;;;;;;2019970;28;20260;-74
2022/04/11 02:28:44;;;;;;;1.85;0.98;;;15.80;90.20;;;;;;2020136;28;20728;-73
2022/04/11 02:29:42;;;;;;;3.53;1.30;;;15.80;90.20;;;;;;2025715;28;20179;-73
2022/04/11 02:30:40;;;;;;;1.93;0.90;;;15.80;90.20;;;;;;2027786;28;20224;-75
2022/04/11 02:31:39;;;;;;;6.10;1.40;;;15.80;90.20;;;;;;2029206;28;20171;-74
2022/04/11 02:32:38;;;;;;;1.30;1.00;;;15.80;90.10;;;;;;2026387;28;20176;-72
2022/04/11 02:33:36;;;;;;;1.60;1.07;;;15.80;90.10;;;;;;2021423;28;20590;-73
2022/04/11 02:34:35;;;;;;;2.70;1.40;;;15.80;90.10;;;;;;2021011;28;20399;-73
2022/04/11 02:35:33;;;;;;;3.10;1.00;;;15.80;90.10;;;;;;2020699;28;20203;-73
2022/04/11 02:36:32;;;;;;;2.53;1.37;;;15.80;90.20;;;;;;2020530;28;20623;-72
2022/04/11 02:37:31;;;;;;;1.53;1.30;;;15.80;90.10;;;;;;2020619;28;20233;-75
2022/04/11 02:38:29;;;;;;;2.97;1.47;;;15.80;90.10;;;;;;2020605;28;20172;-73
2022/04/11 02:39:28;;;;;;;2.30;0.90;;;15.80;90.10;;;;;;2020536;28;20179;-73
2022/04/11 02:40:26;;;;;;;2.73;1.40;;;15.80;90.10;;;;;;2020465;28;20176;-73
2022/04/11 02:41:25;;;;;;;2.10;1.00;;;15.90;90.10;;;;;;2020587;28;20257;-73
2022/04/11 02:42:25;;;;;;;2.60;0.93;;;15.80;90.10;;;;;;2020388;28;20418;-74
2022/04/11 02:43:23;;;;;;;1.30;0.95;;;15.80;90.10;;;;;;2019780;28;20176;-73
2022/04/11 02:44:22;;;;;;;2.13;1.00;;;15.80;90.10;;;;;;2019862;28;20176;-72
2022/04/11 02:45:20;;;;;;;1.50;1.07;;;15.80;90.10;;;;;;2020338;28;20539;-72
2022/04/11 02:46:19;;;;;;;1.77;1.10;;;15.80;90.10;;;;;;2020303;28;20172;-73
2022/04/11 02:47:18;;;;;;;6.17;1.43;;;15.80;90.20;;;;;;2020493;28;20179;-72
2022/04/11 02:48:17;;;;;;;1.90;1.40;;;15.80;90.20;;;;;;2020511;28;20179;-75
2022/04/11 02:49:15;;;;;;;2.55;1.30;;;15.80;90.20;;;;;;2020470;28;20183;-73
2022/04/11 02:50:14;;;;;;;2.80;1.30;;;15.80;90.20;;;;;;2020309;28;20674;-73
2022/04/11 02:51:13;;;;;;;1.80;1.03;;;15.80;90.10;;;;;;2020426;28;20717;-73
2022/04/11 02:52:12;;;;;;;1.50;1.13;;;15.80;90.20;;;;;;2020475;28;20160;-72
2022/04/11 02:53:10;;;;;;;1.40;1.10;;;15.80;90.10;;;;;;2020212;28;20257;-73
2022/04/11 02:54:09;;;;;;;5.40;1.10;;;15.70;90.10;;;;;;2020272;28;20490;-73
2022/04/11 02:55:08;;;;;;;6.63;1.43;;;15.80;90.30;;;;;;2020307;28;20638;-73
2022/04/11 02:56:06;;;;;;;1.20;1.10;;;15.70;90.20;;;;;;2020485;28;20179;-73
2022/04/11 02:57:06;;;;;;;1.40;1.00;;;15.80;90.20;;;;;;2020297;28;20286;-73
2022/04/11 02:58:04;;;;;;;1.00;0.80;;;15.70;90.10;;;;;;2020372;28;20262;-73
2022/04/11 02:59:03;;;;;;;1.57;1.10;;;15.70;90.20;;;;;;2020127;28;20190;-73
2022/04/11 03:00:02;;;;;;;4.13;1.20;;;15.70;90.20;;;;;;2020335;28;20178;-73
2022/04/11 03:01:00;;;;;;;2.67;1.57;;;15.70;90.30;;;;;;2020380;28;20540;-73
2022/04/11 03:02:00;;;;;;;1.47;1.20;;;15.70;90.20;;;;;;2020525;28;20739;-73
2022/04/11 03:02:58;;;;;;;1.10;0.90;;;15.70;90.20;;;;;;2019649;28;20639;-74
2022/04/11 03:03:57;;;;;;;1.70;1.40;;;15.70;90.20;;;;;;2019869;28;20184;-73
2022/04/11 03:04:55;;;;;;;2.70;1.40;;;15.70;90.10;;;;;;2020226;28;20239;-72
2022/04/11 03:05:54;;;;;;;1.13;0.90;;;15.70;90.20;;;;;;2020384;28;20186;-73
2022/04/11 03:06:56;;;;;;;1.40;1.03;;;15.70;90.20;;;;;;2020193;28;20195;-73
2022/04/11 03:07:54;;;;;;;1.48;1.30;;;15.70;90.20;;;;;;2020314;28;20211;-73
2022/04/11 03:08:53;;;;;;;1.50;1.20;;;15.70;90.20;;;;;;2020436;28;20530;-75
2022/04/11 03:09:51;;;;;;;1.97;1.20;;;15.70;90.20;;;;;;2019705;28;20203;-74
2022/04/11 03:10:50;;;;;;;2.10;1.10;;;15.70;90.20;;;;;;2019945;28;20172;-73
2022/04/11 03:11:48;;;;;;;2.50;1.20;;;15.70;90.30;;;;;;2020738;28;20229;-74
2022/04/11 03:12:47;;;;;;;2.20;0.87;;;15.70;90.20;;;;;;2021943;28;20200;-72
2022/04/11 03:13:47;;;;;;;0.90;0.80;;;15.70;90.20;;;;;;2022017;28;20646;-73
2022/04/11 03:14:48;;;;;;;1.50;1.15;;;15.70;90.20;;;;;;2021981;28;20194;-73
2022/04/11 03:15:47;;;;;;;1.73;1.08;;;15.70;90.20;;;;;;2022038;28;20210;-73
2022/04/11 03:16:45;;;;;;;2.33;1.20;;;15.60;90.20;;;;;;2021972;28;20332;-73
2022/04/11 03:17:44;;;;;;;1.37;1.20;;;15.70;90.20;;;;;;2022393;28;20167;-73
2022/04/11 03:18:43;;;;;;;2.23;1.20;;;15.70;90.20;;;;;;2022576;28;20170;-73
2022/04/11 03:19:42;;;;;;;1.63;1.00;;;15.70;90.20;;;;;;2022285;28;20172;-73
2022/04/11 03:20:41;;;;;;;1.85;1.00;;;15.60;90.20;;;;;;2022107;28;20254;-73
2022/04/11 03:21:39;;;;;;;1.43;0.87;;;15.70;90.20;;;;;;2022202;28;20171;-73
2022/04/11 03:22:38;;;;;;;3.00;1.17;;;15.60;90.20;;;;;;2022138;28;20164;-73
2022/04/11 03:23:36;;;;;;;1.30;1.20;;;15.60;90.30;;;;;;2021854;28;20178;-73
2022/04/11 03:24:35;;;;;;;2.13;1.13;;;15.60;90.30;;;;;;2021192;28;20180;-73
2022/04/11 03:25:34;;;;;;;1.10;1.00;;;15.50;90.20;;;;;;2021254;28;20199;-73
2022/04/11 03:26:32;;;;;;;2.43;1.10;;;15.60;90.20;;;;;;2021702;28;20184;-74
2022/04/11 03:27:31;;;;;;;1.63;1.10;;;15.60;90.20;;;;;;2021988;28;20233;-73
2022/04/11 03:28:29;;;;;;;1.67;0.93;;;15.60;90.30;;;;;;2021951;28;20195;-73
2022/04/11 03:29:28;;;;;;;2.83;1.13;;;15.60;90.30;;;;;;2021921;28;20175;-74
2022/04/11 03:30:26;;;;;;;5.33;1.67;;;15.60;90.30;;;;;;2021858;28;20179;-73
2022/04/11 03:31:24;;;;;;;1.43;1.00;;;15.60;90.20;;;;;;2021092;28;20179;-74
2022/04/11 03:32:23;;;;;;;1.20;1.10;;;15.60;90.20;;;;;;2021561;28;20199;-73
2022/04/11 03:33:21;;;;;;;1.60;1.10;;;15.60;90.20;;;;;;2021920;28;20245;-74
2022/04/11 03:34:20;;;;;;;1.27;1.13;;;15.60;90.30;;;;;;2021742;28;20673;-74
2022/04/11 03:35:18;;;;;;;1.33;1.10;;;15.60;90.30;;;;;;2021009;28;20243;-74
2022/04/11 03:36:17;;;;;;;2.50;1.13;;;15.60;90.20;;;;;;2021323;28;20176;-74
2022/04/11 03:37:15;;;;;;;2.50;1.40;;;15.60;90.20;;;;;;2022056;28;20180;-73
2022/04/11 03:38:14;;;;;;;1.90;0.93;;;15.60;90.20;;;;;;2022009;28;20563;-73
2022/04/11 03:39:14;;;;;;;2.03;1.20;;;15.60;90.20;;;;;;2021239;28;20405;-73
2022/04/11 03:40:13;;;;;;;3.53;1.13;;;15.60;90.20;;;;;;2021206;28;20230;-73
2022/04/11 03:41:11;;;;;;;1.30;1.00;;;15.50;90.20;;;;;;2021778;28;20186;-73
2022/04/11 03:42:10;;;;;;;1.00;0.90;;;15.60;90.20;;;;;;2021797;28;20398;-73
2022/04/11 03:43:08;;;;;;;3.40;1.40;;;15.60;90.30;;;;;;2021924;28;20203;-72
2022/04/11 03:44:07;;;;;;;1.53;1.20;;;15.60;90.30;;;;;;2021986;28;20203;-73
2022/04/11 03:45:09;;;;;;;1.63;1.10;;;15.60;90.30;;;;;;2022021;28;20182;-73
2022/04/11 03:46:08;;;;;;;2.65;0.93;;;15.60;90.20;;;;;;2021828;28;20182;-72
2022/04/11 03:47:07;;;;;;;1.30;1.00;;;15.60;90.20;;;;;;2022364;28;20184;-73
2022/04/11 03:48:05;;;;;;;1.50;1.27;;;15.50;90.20;;;;;;2024219;28;20629;-73
2022/04/11 03:49:04;;;;;;;2.10;1.27;;;15.60;90.20;;;;;;2030787;28;20203;-74
2022/04/11 03:50:04;;;;;;;1.10;0.80;;;15.60;90.30;;;;;;2030259;28;20183;-73
2022/04/11 03:51:02;;;;;;;2.05;1.05;;;15.60;90.30;;;;;;2029822;28;20234;-74
2022/04/11 03:52:01;;;;;;;2.40;1.00;;;15.60;90.20;;;;;;2027086;28;20198;-73
2022/04/11 03:52:59;;;;;;;1.50;1.10;;;15.60;90.20;;;;;;2021705;28;20227;-73
2022/04/11 03:53:58;;;;;;;1.80;1.10;;;15.60;90.20;;;;;;2021865;28;20188;-74
2022/04/11 03:54:56;;;;;;;1.70;1.00;;;15.50;90.20;;;;;;2021885;28;20186;-74
2022/04/11 03:55:55;;;;;;;4.67;1.33;;;15.60;90.30;;;;;;2021601;28;20183;-75
2022/04/11 03:56:53;;;;;;;3.37;1.10;;;15.50;90.30;;;;;;2021601;28;20187;-73
2022/04/11 03:57:51;;;;;;;1.40;1.03;;;15.60;90.30;;;;;;2021647;28;20178;-74
2022/04/11 03:58:50;;;;;;;3.17;1.17;;;15.50;90.30;;;;;;2021683;28;20573;-73
2022/04/11 03:59:48;;;;;;;1.40;1.03;;;15.50;90.20;;;;;;2021738;28;20506;-73
2022/04/11 04:00:49;;;;;;;1.47;1.00;;;15.50;90.30;;;;;;2023427;28;20171;-73
2022/04/11 04:01:47;;;;;;;1.13;0.90;;;15.60;90.20;;;;;;2021411;28;20541;-74
2022/04/11 04:02:46;;;;;;;1.90;1.30;;;15.50;90.30;;;;;;2021783;28;20167;-73
2022/04/11 04:03:45;;;;;;;1.13;0.97;;;15.50;90.20;;;;;;2021771;28;20179;-74
2022/04/11 04:04:43;;;;;;;2.00;1.20;;;15.50;90.20;;;;;;2021706;28;20634;-74
2022/04/11 04:05:43;;;;;;;1.30;1.00;;;15.50;90.30;;;;;;2021453;28;20539;-74
2022/04/11 04:06:42;;;;;;;2.03;1.10;;;15.50;90.30;;;;;;2021545;28;20219;-73
2022/04/11 04:07:40;;;;;;;1.40;1.10;;;15.50;90.30;;;;;;2021582;28;20574;-73
2022/04/11 04:08:39;;;;;;;3.27;1.33;;;15.50;90.30;;;;;;2021527;28;20400;-73
2022/04/11 04:09:37;;;;;;;1.10;1.00;;;15.50;90.20;;;;;;2021040;28;20205;-74
2022/04/11 04:10:36;;;;;;;2.70;1.17;;;15.50;90.20;;;;;;2020938;28;20210;-74
2022/04/11 04:11:34;;;;;;;3.87;1.00;;;15.50;90.20;;;;;;2021259;28;20175;-74
2022/04/11 04:12:33;;;;;;;1.60;0.90;;;15.50;90.20;;;;;;2021455;28;20518;-74
2022/04/11 04:13:34;;;;;;;1.20;1.10;;;15.50;90.20;;;;;;2021835;28;20321;-74
2022/04/11 04:14:36;;;;;;;1.50;1.08;;;15.50;90.30;;;;;;2021655;28;20168;-73
2022/04/11 04:15:36;;;;;;;2.72;1.20;;;15.40;90.20;;;;;;2021471;28;20172;-74
2022/04/11 04:16:35;;;;;;;2.25;1.00;;;15.50;90.20;;;;;;2021456;28;20581;-73
2022/04/11 04:17:33;;;;;;;2.20;1.60;;;15.50;90.20;;;;;;2021817;28;20187;-74
2022/04/11 04:18:32;;;;;;;1.20;0.80;;;15.50;90.20;;;;;;2021528;28;20646;-74
2022/04/11 04:19:30;;;;;;;1.50;1.20;;;15.40;90.10;;;;;;2021514;28;20218;-75
2022/04/11 04:20:29;;;;;;;3.13;1.07;;;15.40;90.20;;;;;;2021502;28;20167;-74
2022/04/11 04:21:28;;;;;;;1.33;0.80;;;15.50;90.30;;;;;;2021548;28;20505;-73
2022/04/11 04:22:26;;;;;;;1.50;1.40;;;15.50;90.20;;;;;;2021666;28;20803;-73
2022/04/11 04:23:25;;;;;;;0.90;0.80;;;15.50;90.30;;;;;;2020569;28;20218;-74
2022/04/11 04:24:24;;;;;;;4.43;1.30;;;15.40;90.30;;;;;;2021208;28;20186;-74
2022/04/11 04:25:23;;;;;;;1.52;1.10;;;15.50;90.30;;;;;;2021377;28;20222;-73
2022/04/11 04:26:22;;;;;;;1.85;1.27;;;15.50;90.20;;;;;;2021329;28;20359;-72
2022/04/11 04:27:20;;;;;;;1.53;1.07;;;15.50;90.20;;;;;;2021686;28;20428;-73
2022/04/11 04:28:19;;;;;;;2.13;1.00;;;15.50;90.30;;;;;;2021405;28;20246;-73
2022/04/11 04:29:17;;;;;;;1.30;1.00;;;15.50;90.30;;;;;;2021505;28;20176;-73
2022/04/11 04:30:16;;;;;;;1.33;1.13;;;15.50;90.30;;;;;;2021380;28;20174;-73
2022/04/11 04:31:15;;;;;;;1.37;1.20;;;15.50;90.30;;;;;;2020738;28;20168;-73
2022/04/11 04:32:13;;;;;;;1.60;1.30;;;15.50;90.30;;;;;;2020732;28;20183;-74
2022/04/11 04:33:14;;;;;;;1.43;0.90;;;15.50;90.30;;;;;;2021471;28;20211;-73
2022/04/11 04:34:13;;;;;;;1.80;1.10;;;15.50;90.30;;;;;;2021543;28;20168;-74
2022/04/11 04:35:12;;;;;;;1.10;1.00;;;15.50;90.30;;;;;;2021415;28;20600;-74
2022/04/11 04:36:10;;;;;;;1.80;0.83;;;15.50;90.30;;;;;;2021421;28;20410;-73
2022/04/11 04:37:09;;;;;;;1.47;1.00;;;15.50;90.30;;;;;;2020741;28;20187;-73
2022/04/11 04:38:08;;;;;;;1.23;0.90;;;15.50;90.40;;;;;;2020916;28;20665;-73
2022/04/11 04:39:06;;;;;;;1.33;0.93;;;15.50;90.30;;;;;;2021326;28;20191;-75
2022/04/11 04:40:06;;;;;;;1.30;0.90;;;15.50;90.30;;;;;;2021440;28;20418;-74
2022/04/11 04:41:04;;;;;;;2.35;1.15;;;15.50;90.30;;;;;;2021337;28;20919;-73
2022/04/11 04:42:03;;;;;;;1.60;1.03;;;15.50;90.50;;;;;;2021458;28;20199;-75
2022/04/11 04:43:02;;;;;;;1.50;0.90;;;15.40;90.30;;;;;;2021331;28;20225;-74
2022/04/11 04:44:00;;;;;;;3.93;1.30;;;15.50;90.40;;;;;;2021349;28;20417;-72
2022/04/11 04:44:59;;;;;;;2.37;1.30;;;15.50;90.40;;;;;;2021446;28;20239;-73
2022/04/11 04:45:57;;;;;;;1.70;1.10;;;15.50;90.40;;;;;;2020700;28;20263;-73
2022/04/11 04:46:56;;;;;;;3.73;1.33;;;15.40;90.40;;;;;;2020734;28;20188;-72
2022/04/11 04:47:54;;;;;;;1.83;1.07;;;15.50;90.40;;;;;;2021288;28;20171;-74
2022/04/11 04:48:53;;;;;;;1.93;1.10;;;15.50;90.40;;;;;;2021200;28;20190;-75
2022/04/11 04:49:51;;;;;;;1.20;1.00;;;15.40;90.30;;;;;;2021291;28;20167;-73
2022/04/11 04:50:50;;;;;;;1.30;1.10;;;15.40;90.40;;;;;;2021261;28;20174;-74
2022/04/11 04:51:49;;;;;;;3.23;1.17;;;15.40;90.40;;;;;;2020584;28;20235;-74
2022/04/11 04:52:47;;;;;;;1.70;1.07;;;15.50;90.40;;;;;;2020548;28;20164;-73
2022/04/11 04:53:46;;;;;;;1.40;1.10;;;15.40;90.40;;;;;;2021179;28;20419;-74
2022/04/11 04:54:44;;;;;;;2.30;1.30;;;15.40;90.40;;;;;;2021244;28;20646;-72
2022/04/11 04:55:44;;;;;;;1.70;1.03;;;15.50;90.40;;;;;;2021502;28;20642;-73
2022/04/11 04:56:43;;;;;;;1.35;1.13;;;15.50;90.50;;;;;;2024111;28;20199;-74
2022/04/11 04:57:43;;;;;;;1.42;1.10;;;15.50;90.50;;;;;;2024260;28;20164;-71
2022/04/11 04:58:45;;;;;;;1.75;1.33;;;15.40;90.40;;;;;;2025154;28;20183;-73
2022/04/11 04:59:48;;;;;;;1.67;1.15;;;15.40;90.40;;;;;;2023038;28;20595;-72
2022/04/11 05:00:46;;;;;;;1.17;1.08;;;15.50;90.30;;;;;;2024642;28;20180;-72
2022/04/11 05:01:51;;;;;;;5.87;1.70;;;15.40;90.40;;;;;;2033456;28;20171;-74
2022/04/11 05:02:52;;;;;;;2.53;1.20;;;15.40;90.30;;;;;;2031175;28;20197;-73
2022/04/11 05:03:52;;;;;;;1.27;1.05;;;15.40;90.40;;;;;;2032389;28;20179;-72
2022/04/11 05:04:50;;;;;;;1.52;1.00;;;15.50;90.50;;;;;;2027539;28;20270;-73
2022/04/11 05:05:49;;;;;;;1.57;0.97;;;15.40;90.30;;;;;;2028365;28;20175;-73
2022/04/11 05:06:47;;;;;;;1.10;0.70;;;15.40;90.40;;;;;;2028491;28;20700;-74
2022/04/11 05:07:46;;;;;;;1.30;1.03;;;15.40;90.40;;;;;;2028267;28;20211;-73
2022/04/11 05:08:44;;;;;;;1.20;1.10;;;15.40;90.40;;;;;;2028195;28;20163;-73
2022/04/11 05:09:43;;;;;;;1.43;1.10;;;15.50;90.50;;;;;;2028394;28;20202;-73
2022/04/11 05:10:41;;;;;;;1.77;1.20;;;15.40;90.40;;;;;;2028350;28;20270;-72
2022/04/11 05:11:40;;;;;;;3.80;1.70;;;15.40;90.30;;;;;;2028594;28;20258;-73
2022/04/11 05:12:43;;;;;;;2.17;1.63;;;15.40;90.40;;;;;;2028288;28;20197;-74
2022/04/11 05:13:42;;;;;;;5.25;1.52;;;15.40;90.50;;;;;;2035254;28;20250;-74
2022/04/11 05:14:41;;;;;;;1.52;1.30;;;15.50;90.50;;;;;;2036324;28;20175;-73
2022/04/11 05:15:42;;;;;;;2.17;1.20;;;15.50;90.40;;;;;;2037139;28;20186;-74
2022/04/11 05:16:40;;;;;;;1.85;1.40;;;15.40;90.30;;;;;;2037021;28;20209;-73
2022/04/11 05:17:39;;;;;;;1.77;1.30;;;15.50;90.40;;;;;;2034698;28;20240;-72
2022/04/11 05:18:38;;;;;;;1.63;0.93;;;15.50;90.40;;;;;;2034206;28;20175;-73
2022/04/11 05:19:36;;;;;;;2.70;1.10;;;15.50;90.40;;;;;;2024250;28;20441;-73
2022/04/11 05:20:35;;;;;;;2.20;1.60;;;15.40;90.40;;;;;;2022030;28;20262;-73
2022/04/11 05:21:33;;;;;;;2.63;1.33;;;15.50;90.40;;;;;;2027841;28;20268;-74
2022/04/11 05:22:32;;;;;;;4.30;1.10;;;15.50;90.40;;;;;;2028549;28;20236;-74
2022/04/11 05:23:31;;;;;;;2.17;1.10;;;15.50;90.40;;;;;;2028147;28;20179;-73
2022/04/11 05:24:29;;;;;;;2.10;1.20;;;15.40;90.40;;;;;;2028190;28;20201;-73